createdAt,value
2023-02-23T00:02:05.783Z,17.77
2023-02-23T00:04:33.977Z,17.50
2023-02-23T00:07:00.778Z,16.47
2023-02-23T00:09:35.086Z,19.90
2023-02-23T00:12:07.608Z,17.40
2023-02-23T00:14:37.587Z,18.03
2023-02-23T00:17:04.999Z,17.60
2023-02-23T00:19:33.310Z,18.87
2023-02-23T00:22:01.080Z,21.07
2023-02-23T00:24:28.015Z,22.00
2023-02-23T00:26:55.162Z,19.77
2023-02-23T00:29:24.742Z,18.80
2023-02-23T00:31:52.451Z,17.17
2023-02-23T00:34:21.568Z,18.60
2023-02-23T00:36:55.260Z,17.50
2023-02-23T00:39:26.334Z,17.20
2023-02-23T00:41:55.084Z,20.97
2023-02-23T00:44:23.741Z,19.17
2023-02-23T00:46:52.345Z,18.23
2023-02-23T00:49:22.259Z,18.10
2023-02-23T00:51:49.454Z,20.30
2023-02-23T00:54:17.657Z,18.27
2023-02-23T00:56:45.304Z,17.63
2023-02-23T00:59:13.539Z,17.73
2023-02-23T01:01:41.943Z,20.57
2023-02-23T01:04:10.645Z,17.67
2023-02-23T01:06:39.060Z,16.70
2023-02-23T01:09:13.442Z,18.73
2023-02-23T01:11:41.498Z,19.07
2023-02-23T01:14:10.146Z,19.13
2023-02-23T01:16:38.849Z,18.07
2023-02-23T01:19:06.380Z,18.27
2023-02-23T01:21:37.172Z,26.23
2023-02-23T01:24:05.262Z,20.17
2023-02-23T01:26:35.276Z,22.70
2023-02-23T01:29:08.566Z,19.80
2023-02-23T01:31:37.593Z,22.03
2023-02-23T01:34:06.026Z,20.27
2023-02-23T01:36:38.901Z,20.00
2023-02-23T01:39:09.058Z,19.97
2023-02-23T01:41:37.247Z,20.73
2023-02-23T01:44:13.226Z,21.80
2023-02-23T01:46:46.171Z,22.57
2023-02-23T01:49:20.029Z,23.60
2023-02-23T01:51:55.745Z,23.40
2023-02-23T01:54:39.244Z,24.10
2023-02-23T01:57:07.974Z,22.27
2023-02-23T01:59:42.553Z,20.07
2023-02-23T02:02:09.650Z,22.37
2023-02-23T02:04:45.489Z,22.17
2023-02-23T02:07:20.277Z,22.87
2023-02-23T02:10:07.366Z,23.77
2023-02-23T02:12:34.386Z,21.23
2023-02-23T02:15:04.832Z,23.13
2023-02-23T02:18:23.385Z,20.97
2023-02-23T02:21:20.611Z,22.10
2023-02-23T02:23:57.021Z,21.80
2023-02-23T02:27:13.493Z,21.50
2023-02-23T02:30:34.364Z,19.93
2023-02-23T02:33:58.256Z,23.67
2023-02-23T02:37:09.995Z,23.60
2023-02-23T02:39:55.014Z,20.43
2023-02-23T02:42:36.585Z,22.93
2023-02-23T02:45:15.880Z,23.43
2023-02-23T02:47:57.391Z,23.20
2023-02-23T02:50:51.419Z,25.63
2023-02-23T02:53:41.516Z,25.90
2023-02-23T02:56:08.837Z,18.47
2023-02-23T02:58:38.920Z,22.53
2023-02-23T03:01:33.270Z,21.20
2023-02-23T03:04:36.114Z,19.67
2023-02-23T03:08:10.102Z,20.60
2023-02-23T03:11:08.614Z,21.97
2023-02-23T03:14:18.563Z,22.17
2023-02-23T03:17:38.680Z,21.43
2023-02-23T03:20:45.243Z,21.27
2023-02-23T03:23:44.618Z,20.70
2023-02-23T03:26:38.479Z,21.07
2023-02-23T03:29:50.631Z,22.43
2023-02-23T03:32:53.176Z,21.43
2023-02-23T03:35:53.509Z,23.67
2023-02-23T03:38:55.915Z,25.63
2023-02-23T03:41:44.240Z,26.40
2023-02-23T03:44:37.170Z,24.50
2023-02-23T03:47:23.907Z,20.90
2023-02-23T03:50:10.036Z,26.60
2023-02-23T03:53:03.185Z,23.60
2023-02-23T03:56:00.576Z,23.40
2023-02-23T03:58:57.023Z,24.03
2023-02-23T04:01:45.302Z,25.40
2023-02-23T04:04:30.855Z,25.60
2023-02-23T04:07:19.868Z,24.07
2023-02-23T04:10:05.698Z,24.30
2023-02-23T04:13:15.586Z,26.53
2023-02-23T04:16:01.649Z,21.97
2023-02-23T04:18:31.421Z,22.00
2023-02-23T04:20:59.381Z,23.70
2023-02-23T04:23:27.501Z,21.30
2023-02-23T04:25:55.597Z,21.83
2023-02-23T04:28:25.719Z,22.13
2023-02-23T04:30:52.895Z,23.07
2023-02-23T04:33:22.063Z,24.43
2023-02-23T04:35:49.357Z,27.00
2023-02-23T04:38:16.199Z,26.13
2023-02-23T04:40:43.087Z,26.70
2023-02-23T04:43:13.094Z,25.27
2023-02-23T04:45:40.949Z,23.13
2023-02-23T04:48:08.480Z,27.53
2023-02-23T04:50:35.559Z,24.50
2023-02-23T04:53:02.418Z,27.93
2023-02-23T04:55:29.303Z,24.37
2023-02-23T04:58:01.370Z,23.80
2023-02-23T05:00:29.516Z,27.83
2023-02-23T05:02:57.613Z,25.00
2023-02-23T05:05:24.619Z,25.57
2023-02-23T05:07:51.527Z,25.87
2023-02-23T05:10:18.444Z,25.17
2023-02-23T05:12:46.037Z,21.87
2023-02-23T05:15:12.929Z,21.97
2023-02-23T05:17:43.907Z,25.27
2023-02-23T05:20:13.319Z,23.63
2023-02-23T05:22:40.743Z,23.33
2023-02-23T05:25:10.234Z,25.87
2023-02-23T05:27:37.382Z,22.47
2023-02-23T05:30:07.777Z,21.20
2023-02-23T05:32:34.848Z,24.17
2023-02-23T05:35:02.592Z,21.07
2023-02-23T05:37:29.487Z,23.83
2023-02-23T05:39:56.325Z,22.87
2023-02-23T05:42:23.159Z,23.23
2023-02-23T05:44:50.004Z,23.77
2023-02-23T05:47:16.831Z,23.43
2023-02-23T05:49:45.357Z,22.53
2023-02-23T05:52:12.255Z,23.40
2023-02-23T05:54:39.078Z,23.37
2023-02-23T05:57:05.932Z,25.33
2023-02-23T05:59:32.737Z,23.83
2023-02-23T06:01:59.563Z,22.87
2023-02-23T06:04:26.389Z,23.03
2023-02-23T06:06:53.235Z,24.10
2023-02-23T06:09:20.113Z,27.73
2023-02-23T06:11:46.956Z,25.97
2023-02-23T06:14:13.986Z,27.87
2023-02-23T06:16:40.938Z,25.30
2023-02-23T06:19:07.941Z,28.77
2023-02-23T06:21:34.882Z,27.37
2023-02-23T06:24:02.465Z,24.53
2023-02-23T06:26:29.711Z,26.30
2023-02-23T06:28:57.152Z,27.87
2023-02-23T06:31:24.190Z,27.90
2023-02-23T06:33:51.281Z,29.73
2023-02-23T06:36:18.068Z,28.53
2023-02-23T06:38:45.694Z,30.10
2023-02-23T06:41:13.437Z,28.33
2023-02-23T06:43:40.283Z,29.87
2023-02-23T06:46:07.480Z,29.63
2023-02-23T06:48:35.489Z,27.80
2023-02-23T06:51:03.153Z,23.70
2023-02-23T06:53:30.774Z,25.73
2023-02-23T06:55:57.832Z,24.63
2023-02-23T06:58:24.852Z,24.03
2023-02-23T07:00:51.879Z,26.67
2023-02-23T07:03:19.233Z,28.30
2023-02-23T07:05:46.200Z,28.67
2023-02-23T07:08:13.000Z,26.30
2023-02-23T07:10:39.890Z,26.80
2023-02-23T07:13:06.787Z,28.03
2023-02-23T07:15:37.885Z,23.90
2023-02-23T07:18:04.941Z,27.67
2023-02-23T07:20:33.089Z,25.30
2023-02-23T07:23:03.680Z,21.60
2023-02-23T07:25:30.995Z,25.07
2023-02-23T07:27:59.118Z,25.47
2023-02-23T07:30:26.447Z,25.40
2023-02-23T07:32:54.173Z,24.83
2023-02-23T07:35:21.155Z,24.87
2023-02-23T07:37:48.084Z,26.27
2023-02-23T07:40:15.038Z,25.87
2023-02-23T07:42:41.920Z,25.03
2023-02-23T07:45:09.467Z,26.07
2023-02-23T07:47:37.493Z,25.17
2023-02-23T07:50:07.990Z,24.53
2023-02-23T07:52:34.890Z,23.13
2023-02-23T07:55:01.727Z,26.10
2023-02-23T07:57:28.618Z,24.37
2023-02-23T07:59:55.451Z,29.03
2023-02-23T08:02:22.287Z,27.67
2023-02-23T08:04:49.234Z,26.63
2023-02-23T08:07:16.208Z,27.07
2023-02-23T08:09:43.039Z,28.93
2023-02-23T08:12:10.471Z,24.27
2023-02-23T08:14:37.370Z,28.00
2023-02-23T08:17:04.217Z,26.53
2023-02-23T08:19:31.470Z,24.97
2023-02-23T08:21:58.275Z,28.10
2023-02-23T08:24:26.604Z,25.33
2023-02-23T08:26:53.536Z,27.07
2023-02-23T08:29:21.422Z,24.30
2023-02-23T08:31:48.472Z,26.87
2023-02-23T08:34:15.342Z,27.03
2023-02-23T08:36:45.388Z,27.70
2023-02-23T08:39:13.513Z,29.40
2023-02-23T08:41:41.298Z,24.07
2023-02-23T08:44:08.423Z,26.40
2023-02-23T08:46:35.278Z,28.33
2023-02-23T08:49:02.943Z,24.03
2023-02-23T08:51:29.793Z,25.97
2023-02-23T08:53:57.361Z,24.73
2023-02-23T08:56:25.306Z,26.27
2023-02-23T08:58:53.115Z,23.57
2023-02-23T09:01:22.355Z,24.30
2023-02-23T09:03:50.225Z,24.93
2023-02-23T09:06:20.850Z,25.50
2023-02-23T09:08:47.824Z,23.17
2023-02-23T09:11:14.695Z,23.13
2023-02-23T09:13:41.547Z,21.07
2023-02-23T09:16:08.576Z,24.93
2023-02-23T09:18:36.492Z,22.47
2023-02-23T09:21:06.980Z,21.63
2023-02-23T09:23:35.374Z,21.93
2023-02-23T09:26:08.370Z,24.40
2023-02-23T09:28:35.702Z,24.70
2023-02-23T09:31:15.406Z,20.87
2023-02-23T09:33:42.715Z,19.80
2023-02-23T09:36:21.071Z,22.47
2023-02-23T09:38:55.175Z,21.47
2023-02-23T09:41:59.529Z,23.43
2023-02-23T09:44:48.440Z,19.20
2023-02-23T09:47:41.459Z,22.70
2023-02-23T09:50:27.654Z,20.90
2023-02-23T09:53:04.960Z,21.43
2023-02-23T09:55:32.738Z,20.07
2023-02-23T09:58:09.377Z,19.50
2023-02-23T10:00:44.637Z,19.27
2023-02-23T10:03:20.797Z,18.53
2023-02-23T10:05:56.267Z,21.10
2023-02-23T10:09:03.932Z,22.37
2023-02-23T10:11:48.539Z,19.87
2023-02-23T10:14:42.457Z,20.63
2023-02-23T10:17:32.933Z,21.43
2023-02-23T10:20:27.410Z,20.37
2023-02-23T10:22:58.390Z,22.43
2023-02-23T10:25:28.769Z,19.20
2023-02-23T10:27:58.356Z,20.43
2023-02-23T10:30:32.135Z,24.63
2023-02-23T10:33:16.970Z,18.40
2023-02-23T10:35:44.999Z,18.80
2023-02-23T10:38:19.414Z,20.20
2023-02-23T10:40:51.278Z,25.97
2023-02-23T10:43:18.071Z,21.60
2023-02-23T10:45:51.563Z,19.07
2023-02-23T10:48:29.975Z,20.13
2023-02-23T10:51:02.931Z,19.33
2023-02-23T10:53:37.430Z,21.23
2023-02-23T10:56:18.354Z,21.53
2023-02-23T10:58:51.977Z,19.37
2023-02-23T11:02:00.449Z,20.50
2023-02-23T11:04:31.720Z,18.13
2023-02-23T11:07:37.363Z,19.33
2023-02-23T11:10:27.667Z,17.83
2023-02-23T11:12:54.457Z,16.23
2023-02-23T11:15:49.489Z,16.27
2023-02-23T11:18:23.442Z,15.47
2023-02-23T11:20:51.540Z,17.93
2023-02-23T11:23:29.230Z,16.47
2023-02-23T11:26:00.570Z,15.37
2023-02-23T11:28:41.596Z,16.37
2023-02-23T11:31:28.600Z,17.03
2023-02-23T11:33:56.402Z,17.67
2023-02-23T11:36:27.975Z,14.53
2023-02-23T11:39:23.430Z,13.37
2023-02-23T11:42:17.865Z,14.50
2023-02-23T11:45:07.489Z,14.03
2023-02-23T11:47:40.243Z,11.60
2023-02-23T11:50:08.481Z,13.07
2023-02-23T11:52:36.482Z,11.93
2023-02-23T11:55:07.980Z,13.60
2023-02-23T11:57:36.294Z,11.97
2023-02-23T12:00:13.055Z,12.73
2023-02-23T12:03:00.397Z,10.50
2023-02-23T12:05:32.093Z,12.07
2023-02-23T12:08:17.456Z,13.03
2023-02-23T12:10:51.999Z,12.17
2023-02-23T12:13:41.860Z,13.40
2023-02-23T12:16:39.082Z,10.87
2023-02-23T12:19:23.477Z,12.87
2023-02-23T12:22:04.290Z,13.43
2023-02-23T12:25:04.940Z,11.50
2023-02-23T12:27:45.117Z,9.43
2023-02-23T12:30:25.765Z,11.23
2023-02-23T12:33:12.484Z,10.07
2023-02-23T12:36:03.253Z,11.20
2023-02-23T12:38:56.317Z,10.43
2023-02-23T12:41:48.318Z,8.67
2023-02-23T12:44:35.588Z,8.63
2023-02-23T12:47:21.870Z,9.70
2023-02-23T12:50:07.391Z,10.47
2023-02-23T12:52:41.212Z,10.43
2023-02-23T12:55:13.779Z,9.73
2023-02-23T12:57:54.920Z,10.67
2023-02-23T13:00:39.986Z,9.93
2023-02-23T13:03:48.921Z,9.77
2023-02-23T13:06:36.806Z,8.50
2023-02-23T13:09:20.914Z,8.93
2023-02-23T13:12:17.464Z,9.53
2023-02-23T13:14:58.527Z,8.20
2023-02-23T13:17:41.089Z,8.40
2023-02-23T13:20:33.527Z,7.60
2023-02-23T13:23:15.252Z,7.17
2023-02-23T13:26:11.494Z,6.57
2023-02-23T13:29:09.204Z,6.53
2023-02-23T13:31:40.011Z,5.93
2023-02-23T13:34:31.427Z,7.93
2023-02-23T13:37:02.160Z,6.40
2023-02-23T13:39:59.352Z,6.47
2023-02-23T13:43:29.027Z,9.00
2023-02-23T13:46:24.325Z,6.93
2023-02-23T13:49:02.363Z,8.80
2023-02-23T13:51:37.913Z,7.50
2023-02-23T13:54:24.326Z,7.67
2023-02-23T13:56:55.894Z,8.03
2023-02-23T13:59:29.991Z,7.47
2023-02-23T14:02:07.581Z,8.57
2023-02-23T14:04:42.343Z,9.27
2023-02-23T14:07:09.306Z,7.87
2023-02-23T14:09:42.834Z,7.80
2023-02-23T14:12:40.620Z,9.87
2023-02-23T14:15:26.266Z,8.87
2023-02-23T14:18:18.830Z,8.63
2023-02-23T14:21:18.186Z,8.97
2023-02-23T14:23:48.157Z,9.17
2023-02-23T14:26:29.708Z,8.40
2023-02-23T14:29:21.651Z,8.00
2023-02-23T14:32:00.794Z,7.93
2023-02-23T14:34:51.747Z,7.73
2023-02-23T14:37:42.287Z,6.73
2023-02-23T14:40:24.093Z,6.83
2023-02-23T14:42:55.696Z,6.30
2023-02-23T14:45:28.809Z,6.53
2023-02-23T14:48:05.935Z,6.63
2023-02-23T14:50:39.014Z,7.43
2023-02-23T14:53:16.504Z,6.37
2023-02-23T14:55:45.468Z,6.07
2023-02-23T14:58:31.367Z,6.43
2023-02-23T15:00:58.231Z,6.63
2023-02-23T15:03:25.404Z,5.77
2023-02-23T15:05:59.124Z,8.20
2023-02-23T15:08:29.305Z,6.70
2023-02-23T15:11:06.716Z,6.93
2023-02-23T15:16:12.700Z,6.73
2023-02-23T15:18:43.427Z,7.07
2023-02-23T15:21:20.047Z,6.93
2023-02-23T15:23:52.983Z,6.77
2023-02-23T15:26:31.795Z,6.40
2023-02-23T15:29:10.821Z,6.37
2023-02-23T15:31:40.936Z,6.87
2023-02-23T15:34:11.283Z,6.37
2023-02-23T15:36:41.276Z,7.83
2023-02-23T15:39:16.729Z,6.70
2023-02-23T15:41:48.383Z,6.07
2023-02-23T15:44:27.311Z,6.60
2023-02-23T15:47:01.015Z,6.23
2023-02-23T15:49:35.615Z,6.30
2023-02-23T15:52:07.563Z,7.83
2023-02-23T15:54:59.861Z,6.43
2023-02-23T15:57:33.553Z,7.30
2023-02-23T16:00:11.704Z,6.87
2023-02-23T16:02:41.054Z,6.90
2023-02-23T16:05:30.388Z,7.20
2023-02-23T16:08:16.451Z,7.73
2023-02-23T16:10:46.825Z,6.60
2023-02-23T16:13:20.396Z,6.90
2023-02-23T16:15:49.060Z,5.97
2023-02-23T16:18:20.556Z,8.53
2023-02-23T16:20:56.024Z,9.53
2023-02-23T16:23:34.275Z,7.80
2023-02-23T16:26:52.110Z,7.47
2023-02-23T16:29:32.287Z,6.97
2023-02-23T16:32:04.103Z,9.20
2023-02-23T16:34:45.972Z,7.77
2023-02-23T16:37:20.226Z,6.40
2023-02-23T16:39:48.034Z,7.70
2023-02-23T16:42:23.238Z,6.80
2023-02-23T16:44:50.268Z,8.13
2023-02-23T16:47:36.657Z,6.60
2023-02-23T16:50:24.534Z,9.50
2023-02-23T16:52:53.308Z,7.80
2023-02-23T16:55:26.086Z,7.83
2023-02-23T16:58:00.970Z,7.73
2023-02-23T17:00:31.465Z,7.73
2023-02-23T17:03:00.652Z,9.70
2023-02-23T17:05:30.042Z,9.53
2023-02-23T17:08:01.042Z,10.17
2023-02-23T17:10:33.434Z,8.50
2023-02-23T17:13:06.246Z,9.83
2023-02-23T17:15:39.297Z,7.23
2023-02-23T17:18:06.733Z,8.03
2023-02-23T17:20:34.153Z,8.37
2023-02-23T17:23:05.118Z,8.70
2023-02-23T17:25:32.550Z,8.50
2023-02-23T17:28:00.977Z,8.30
2023-02-23T17:30:30.017Z,9.70
2023-02-23T17:32:59.270Z,7.80
2023-02-23T17:35:26.644Z,8.63
2023-02-23T17:37:54.417Z,7.53
2023-02-23T17:40:28.626Z,6.63
2023-02-23T17:42:57.965Z,7.13
2023-02-23T17:45:25.938Z,6.93
2023-02-23T17:47:52.945Z,9.20
2023-02-23T17:50:21.494Z,7.50
2023-02-23T17:52:49.965Z,7.03
2023-02-23T17:55:18.257Z,8.03
2023-02-23T17:57:46.025Z,7.43
2023-02-23T18:00:16.190Z,8.47
2023-02-23T18:02:45.043Z,7.50
2023-02-23T18:05:13.810Z,7.10
2023-02-23T18:07:40.948Z,7.73
2023-02-23T18:10:08.928Z,9.00
2023-02-23T18:12:35.826Z,7.63
2023-02-23T18:15:02.784Z,7.57
2023-02-23T18:17:32.425Z,6.17
2023-02-23T18:20:00.341Z,7.73
2023-02-23T18:22:27.208Z,8.17
2023-02-23T18:24:54.761Z,8.40
2023-02-23T18:27:23.613Z,10.40
2023-02-23T18:29:50.477Z,7.80
2023-02-23T18:32:17.491Z,8.67
2023-02-23T18:34:44.457Z,9.07
2023-02-23T18:37:11.526Z,7.30
2023-02-23T18:39:38.343Z,6.73
2023-02-23T18:42:05.548Z,9.83
2023-02-23T18:44:35.028Z,7.67
2023-02-23T18:47:02.434Z,8.63
2023-02-23T18:49:29.305Z,7.97
2023-02-23T18:51:56.670Z,8.83
2023-02-23T18:54:25.904Z,8.93
2023-02-23T18:56:52.833Z,8.17
2023-02-23T18:59:19.708Z,8.63
2023-02-23T19:01:47.877Z,8.13
2023-02-23T19:04:15.184Z,9.50
2023-02-23T19:06:44.717Z,9.80
2023-02-23T19:09:14.580Z,9.00
2023-02-23T19:11:43.410Z,10.60
2023-02-23T19:14:18.228Z,9.00
2023-02-23T19:16:46.696Z,10.97
2023-02-23T19:19:14.590Z,8.97
2023-02-23T19:21:41.703Z,10.03
2023-02-23T19:24:08.745Z,10.67
2023-02-23T19:26:37.588Z,14.17
2023-02-23T19:29:05.103Z,13.27
2023-02-23T19:31:32.428Z,12.43
2023-02-23T19:33:59.711Z,11.20
2023-02-23T19:36:31.753Z,13.13
2023-02-23T19:39:05.877Z,13.97
2023-02-23T19:41:34.199Z,13.63
2023-02-23T19:44:01.598Z,12.87
2023-02-23T19:46:28.988Z,14.13
2023-02-23T19:48:56.447Z,12.80
2023-02-23T19:51:23.996Z,13.53
2023-02-23T19:53:54.702Z,12.03
2023-02-23T19:56:23.039Z,11.13
2023-02-23T19:58:49.933Z,13.60
2023-02-23T20:01:21.000Z,11.53
2023-02-23T20:03:55.435Z,12.07
2023-02-23T20:06:26.991Z,14.63
2023-02-23T20:08:55.344Z,14.00
2023-02-23T20:11:23.634Z,13.70
2023-02-23T20:13:52.845Z,16.37
2023-02-23T20:16:20.623Z,16.37
2023-02-23T20:18:48.089Z,14.63
2023-02-23T20:21:19.236Z,14.37
2023-02-23T20:23:47.459Z,12.77
2023-02-23T20:26:19.835Z,14.20
2023-02-23T20:28:46.804Z,12.23
2023-02-23T20:31:21.689Z,12.63
2023-02-23T20:33:51.414Z,12.63
2023-02-23T20:36:20.639Z,11.73
2023-02-23T20:38:47.667Z,10.77
2023-02-23T20:41:17.321Z,10.37
2023-02-23T20:43:44.360Z,11.10
2023-02-23T20:46:14.578Z,11.30
2023-02-23T20:48:42.073Z,9.33
2023-02-23T20:51:12.810Z,11.70
2023-02-23T20:53:42.073Z,13.33
2023-02-23T20:56:10.065Z,12.57
2023-02-23T20:58:37.004Z,15.23
2023-02-23T21:01:06.576Z,13.83
2023-02-23T21:03:34.973Z,12.40
2023-02-23T21:06:02.167Z,13.43
2023-02-23T21:08:30.269Z,10.70
2023-02-23T21:10:57.131Z,8.53
2023-02-23T21:13:26.447Z,10.63
2023-02-23T21:16:01.037Z,9.53
2023-02-23T21:18:29.748Z,9.40
2023-02-23T21:20:57.421Z,9.47
2023-02-23T21:23:25.395Z,8.83
2023-02-23T21:25:53.963Z,9.37
2023-02-23T21:28:21.209Z,11.53
2023-02-23T21:30:48.122Z,13.00
2023-02-23T21:33:15.256Z,10.70
2023-02-23T21:35:42.050Z,11.30
2023-02-23T21:38:10.404Z,11.87
2023-02-23T21:40:41.990Z,11.43
2023-02-23T21:43:09.170Z,11.00
2023-02-23T21:45:38.904Z,10.50
2023-02-23T21:48:05.837Z,11.07
2023-02-23T21:50:32.735Z,10.43
2023-02-23T21:52:59.571Z,9.80
2023-02-23T21:55:26.511Z,11.77
2023-02-23T21:57:53.423Z,11.03
2023-02-23T22:00:21.656Z,11.87
2023-02-23T22:02:49.295Z,12.87
2023-02-23T22:05:18.233Z,14.13
2023-02-23T22:07:50.673Z,12.00
2023-02-23T22:10:21.571Z,14.33
2023-02-23T22:12:50.164Z,12.47
2023-02-23T22:15:17.175Z,14.63
2023-02-23T22:17:44.518Z,14.30
2023-02-23T22:20:12.140Z,14.20
2023-02-23T22:22:39.013Z,12.47
2023-02-23T22:25:08.068Z,13.03
2023-02-23T22:27:35.029Z,14.20
2023-02-23T22:30:02.116Z,13.87
2023-02-23T22:32:33.261Z,13.27
2023-02-23T22:35:01.204Z,12.97
2023-02-23T22:37:32.002Z,12.70
2023-02-23T22:40:16.690Z,13.77
2023-02-23T22:42:48.325Z,12.90
2023-02-23T22:45:16.231Z,13.03
2023-02-23T22:47:43.409Z,14.30
2023-02-23T22:50:13.895Z,13.90
2023-02-23T22:52:43.125Z,14.03
2023-02-23T22:55:11.088Z,13.13
2023-02-23T22:57:39.812Z,12.27
2023-02-23T23:00:12.923Z,13.43
2023-02-23T23:02:39.841Z,13.40
2023-02-23T23:05:08.064Z,15.57
2023-02-23T23:07:35.270Z,13.47
2023-02-23T23:10:05.390Z,13.00
2023-02-23T23:12:34.281Z,13.60
2023-02-23T23:15:02.017Z,12.97
2023-02-23T23:17:30.665Z,14.07
2023-02-23T23:20:00.104Z,12.57
2023-02-23T23:22:27.615Z,13.67
2023-02-23T23:24:54.471Z,13.77
2023-02-23T23:27:21.508Z,13.73
2023-02-23T23:29:49.144Z,15.13
2023-02-23T23:32:18.888Z,14.13
2023-02-23T23:34:49.412Z,15.20
2023-02-23T23:37:18.842Z,14.87
2023-02-23T23:39:46.160Z,15.73
2023-02-23T23:42:13.450Z,13.87
2023-02-23T23:44:40.275Z,15.63
2023-02-23T23:47:07.210Z,15.43
2023-02-23T23:49:39.911Z,12.13
2023-02-23T23:52:07.015Z,11.97
2023-02-23T23:54:42.299Z,14.97
2023-02-23T23:57:11.320Z,14.33
2023-02-23T23:59:45.633Z,12.20
